sensor_id;sensor_type;location;lat;lon;timestamp;P1;durP1;ratioP1;P2;durP2;ratioP2
72649;SDS011;61467;50.674;4.618;2023-05-07T00:01:51;9.25;;;3.85;;
72649;SDS011;61467;50.674;4.618;2023-05-07T00:04:33;13.30;;;4.05;;
72649;SDS011;61467;50.674;4.618;2023-05-07T00:10:38;10.07;;;3.97;;
72649;SDS011;61467;50.674;4.618;2023-05-07T00:13:38;11.15;;;4.28;;
72649;SDS011;61467;50.674;4.618;2023-05-07T00:16:56;10.55;;;4.20;;
72649;SDS011;61467;50.674;4.618;2023-05-07T00:19:38;11.48;;;3.78;;
72649;SDS011;61467;50.674;4.618;2023-05-07T00:25:44;12.87;;;3.67;;
72649;SDS011;61467;50.674;4.618;2023-05-07T00:28:46;9.48;;;4.00;;
72649;SDS011;61467;50.674;4.618;2023-05-07T00:31:46;10.13;;;3.88;;
72649;SDS011;61467;50.674;4.618;2023-05-07T00:34:46;10.57;;;3.90;;
72649;SDS011;61467;50.674;4.618;2023-05-07T00:37:44;9.35;;;3.30;;
72649;SDS011;61467;50.674;4.618;2023-05-07T00:44:00;11.98;;;3.85;;
72649;SDS011;61467;50.674;4.618;2023-05-07T00:53:25;9.88;;;2.90;;
72649;SDS011;61467;50.674;4.618;2023-05-07T00:56:29;10.03;;;2.93;;
72649;SDS011;61467;50.674;4.618;2023-05-07T00:59:42;7.38;;;2.88;;
72649;SDS011;61467;50.674;4.618;2023-05-07T01:21:00;8.73;;;2.90;;
72649;SDS011;61467;50.674;4.618;2023-05-07T01:23:54;11.15;;;2.83;;
72649;SDS011;61467;50.674;4.618;2023-05-07T01:30:03;9.15;;;3.10;;
72649;SDS011;61467;50.674;4.618;2023-05-07T01:42:31;9.53;;;3.07;;
72649;SDS011;61467;50.674;4.618;2023-05-07T01:45:41;9.10;;;3.22;;
72649;SDS011;61467;50.674;4.618;2023-05-07T01:48:52;11.25;;;3.25;;
72649;SDS011;61467;50.674;4.618;2023-05-07T01:51:56;9.48;;;3.92;;
72649;SDS011;61467;50.674;4.618;2023-05-07T01:58:43;10.13;;;4.10;;
72649;SDS011;61467;50.674;4.618;2023-05-07T02:01:38;8.13;;;3.33;;
72649;SDS011;61467;50.674;4.618;2023-05-07T02:04:30;8.48;;;3.10;;
72649;SDS011;61467;50.674;4.618;2023-05-07T02:07:27;9.82;;;3.53;;
72649;SDS011;61467;50.674;4.618;2023-05-07T02:10:22;10.73;;;3.70;;
72649;SDS011;61467;50.674;4.618;2023-05-07T02:13:14;14.97;;;3.93;;
72649;SDS011;61467;50.674;4.618;2023-05-07T02:16:26;9.38;;;3.20;;
72649;SDS011;61467;50.674;4.618;2023-05-07T02:19:18;9.20;;;3.50;;
72649;SDS011;61467;50.674;4.618;2023-05-07T02:22:15;7.85;;;3.08;;
72649;SDS011;61467;50.674;4.618;2023-05-07T02:25:25;8.90;;;3.40;;
72649;SDS011;61467;50.674;4.618;2023-05-07T02:28:34;9.50;;;3.70;;
72649;SDS011;61467;50.674;4.618;2023-05-07T02:31:39;8.43;;;3.58;;
72649;SDS011;61467;50.674;4.618;2023-05-07T02:37:30;11.35;;;3.65;;
72649;SDS011;61467;50.674;4.618;2023-05-07T02:40:34;7.30;;;3.20;;
72649;SDS011;61467;50.674;4.618;2023-05-07T02:43:31;10.23;;;3.60;;
72649;SDS011;61467;50.674;4.618;2023-05-07T02:46:28;8.05;;;3.08;;
72649;SDS011;61467;50.674;4.618;2023-05-07T02:49:18;8.38;;;3.20;;
72649;SDS011;61467;50.674;4.618;2023-05-07T02:55:35;10.30;;;3.33;;
72649;SDS011;61467;50.674;4.618;2023-05-07T02:58:45;8.20;;;2.90;;
72649;SDS011;61467;50.674;4.618;2023-05-07T03:01:51;10.70;;;3.15;;
72649;SDS011;61467;50.674;4.618;2023-05-07T03:04:32;7.85;;;2.72;;
72649;SDS011;61467;50.674;4.618;2023-05-07T03:07:32;9.73;;;3.17;;
72649;SDS011;61467;50.674;4.618;2023-05-07T03:10:38;7.97;;;2.75;;
72649;SDS011;61467;50.674;4.618;2023-05-07T03:13:44;7.73;;;3.10;;
72649;SDS011;61467;50.674;4.618;2023-05-07T03:16:33;8.95;;;3.17;;
72649;SDS011;61467;50.674;4.618;2023-05-07T03:19:38;8.63;;;3.28;;
72649;SDS011;61467;50.674;4.618;2023-05-07T03:25:27;8.70;;;3.42;;
72649;SDS011;61467;50.674;4.618;2023-05-07T03:28:36;8.90;;;3.40;;
72649;SDS011;61467;50.674;4.618;2023-05-07T03:34:29;9.95;;;3.35;;
72649;SDS011;61467;50.674;4.618;2023-05-07T03:43:39;8.33;;;3.77;;
72649;SDS011;61467;50.674;4.618;2023-05-07T03:46:48;10.07;;;3.50;;
72649;SDS011;61467;50.674;4.618;2023-05-07T03:49:30;10.45;;;3.80;;
72649;SDS011;61467;50.674;4.618;2023-05-07T03:52:25;9.73;;;3.97;;
72649;SDS011;61467;50.674;4.618;2023-05-07T03:55:16;10.55;;;4.38;;
72649;SDS011;61467;50.674;4.618;2023-05-07T03:58:05;10.90;;;3.73;;
72649;SDS011;61467;50.674;4.618;2023-05-07T04:01:07;10.02;;;4.00;;
72649;SDS011;61467;50.674;4.618;2023-05-07T04:07:13;9.80;;;3.80;;
72649;SDS011;61467;50.674;4.618;2023-05-07T04:10:42;8.75;;;3.72;;
72649;SDS011;61467;50.674;4.618;2023-05-07T04:13:39;10.67;;;3.90;;
72649;SDS011;61467;50.674;4.618;2023-05-07T04:16:42;9.32;;;4.28;;
72649;SDS011;61467;50.674;4.618;2023-05-07T04:19:52;9.90;;;4.18;;
72649;SDS011;61467;50.674;4.618;2023-05-07T04:22:48;10.10;;;4.07;;
72649;SDS011;61467;50.674;4.618;2023-05-07T04:25:41;13.43;;;4.30;;
72649;SDS011;61467;50.674;4.618;2023-05-07T04:28:43;10.77;;;4.67;;
72649;SDS011;61467;50.674;4.618;2023-05-07T04:31:19;10.95;;;4.70;;
72649;SDS011;61467;50.674;4.618;2023-05-07T04:34:12;10.80;;;4.93;;
72649;SDS011;61467;50.674;4.618;2023-05-07T04:37:12;11.10;;;4.00;;
72649;SDS011;61467;50.674;4.618;2023-05-07T04:40:04;11.15;;;4.50;;
72649;SDS011;61467;50.674;4.618;2023-05-07T04:43:02;11.07;;;4.70;;
72649;SDS011;61467;50.674;4.618;2023-05-07T05:04:40;11.07;;;4.35;;
72649;SDS011;61467;50.674;4.618;2023-05-07T05:07:16;12.52;;;4.75;;
72649;SDS011;61467;50.674;4.618;2023-05-07T05:09:51;11.35;;;4.68;;
72649;SDS011;61467;50.674;4.618;2023-05-07T05:12:34;12.53;;;5.20;;
72649;SDS011;61467;50.674;4.618;2023-05-07T05:15:19;11.63;;;5.00;;
72649;SDS011;61467;50.674;4.618;2023-05-07T05:17:54;13.98;;;5.50;;
72649;SDS011;61467;50.674;4.618;2023-05-07T05:20:43;13.35;;;4.80;;
72649;SDS011;61467;50.674;4.618;2023-05-07T05:23:24;10.70;;;4.88;;
72649;SDS011;61467;50.674;4.618;2023-05-07T05:25:57;11.13;;;4.77;;
72649;SDS011;61467;50.674;4.618;2023-05-07T05:28:47;11.88;;;5.28;;
72649;SDS011;61467;50.674;4.618;2023-05-07T05:34:22;15.13;;;4.40;;
72649;SDS011;61467;50.674;4.618;2023-05-07T05:37:01;12.07;;;5.40;;
72649;SDS011;61467;50.674;4.618;2023-05-07T05:39:39;11.23;;;4.60;;
72649;SDS011;61467;50.674;4.618;2023-05-07T05:42:12;11.65;;;4.68;;
72649;SDS011;61467;50.674;4.618;2023-05-07T05:44:49;12.57;;;4.53;;
72649;SDS011;61467;50.674;4.618;2023-05-07T05:47:22;12.30;;;4.82;;
72649;SDS011;61467;50.674;4.618;2023-05-07T05:49:51;10.13;;;4.20;;
72649;SDS011;61467;50.674;4.618;2023-05-07T05:52:47;10.80;;;4.90;;
72649;SDS011;61467;50.674;4.618;2023-05-07T05:55:36;10.90;;;4.75;;
72649;SDS011;61467;50.674;4.618;2023-05-07T05:58:10;12.02;;;3.95;;
72649;SDS011;61467;50.674;4.618;2023-05-07T06:00:47;11.40;;;4.63;;
72649;SDS011;61467;50.674;4.618;2023-05-07T06:03:25;12.18;;;4.50;;
72649;SDS011;61467;50.674;4.618;2023-05-07T06:05:55;10.43;;;4.40;;
72649;SDS011;61467;50.674;4.618;2023-05-07T06:08:51;9.77;;;4.07;;
72649;SDS011;61467;50.674;4.618;2023-05-07T06:11:37;13.50;;;4.40;;
72649;SDS011;61467;50.674;4.618;2023-05-07T06:14:16;11.45;;;4.63;;
72649;SDS011;61467;50.674;4.618;2023-05-07T06:16:57;9.35;;;3.90;;
72649;SDS011;61467;50.674;4.618;2023-05-07T06:19:36;10.50;;;4.10;;
72649;SDS011;61467;50.674;4.618;2023-05-07T06:22:20;9.93;;;4.10;;
72649;SDS011;61467;50.674;4.618;2023-05-07T06:24:56;11.55;;;4.13;;
72649;SDS011;61467;50.674;4.618;2023-05-07T06:27:44;10.02;;;4.45;;
72649;SDS011;61467;50.674;4.618;2023-05-07T06:30:15;8.88;;;4.25;;
72649;SDS011;61467;50.674;4.618;2023-05-07T06:32:52;9.57;;;3.67;;
72649;SDS011;61467;50.674;4.618;2023-05-07T06:35:34;8.63;;;3.60;;
72649;SDS011;61467;50.674;4.618;2023-05-07T06:38:16;12.07;;;4.20;;
72649;SDS011;61467;50.674;4.618;2023-05-07T06:40:56;11.73;;;4.40;;
72649;SDS011;61467;50.674;4.618;2023-05-07T06:43:51;9.95;;;4.30;;
72649;SDS011;61467;50.674;4.618;2023-05-07T06:46:35;15.57;;;4.43;;
72649;SDS011;61467;50.674;4.618;2023-05-07T06:49:15;10.30;;;4.22;;
72649;SDS011;61467;50.674;4.618;2023-05-07T06:51:53;9.07;;;4.30;;
72649;SDS011;61467;50.674;4.618;2023-05-07T06:54:35;12.13;;;4.40;;
72649;SDS011;61467;50.674;4.618;2023-05-07T06:57:21;13.70;;;4.70;;
72649;SDS011;61467;50.674;4.618;2023-05-07T07:00:01;10.70;;;4.43;;
72649;SDS011;61467;50.674;4.618;2023-05-07T07:02:45;13.85;;;4.70;;
72649;SDS011;61467;50.674;4.618;2023-05-07T07:05:30;10.88;;;4.72;;
72649;SDS011;61467;50.674;4.618;2023-05-07T07:08:10;10.63;;;4.05;;
72649;SDS011;61467;50.674;4.618;2023-05-07T07:10:47;13.00;;;4.07;;
72649;SDS011;61467;50.674;4.618;2023-05-07T07:13:26;10.00;;;4.17;;
72649;SDS011;61467;50.674;4.618;2023-05-07T07:15:54;10.85;;;4.22;;
72649;SDS011;61467;50.674;4.618;2023-05-07T07:18:27;12.95;;;4.00;;
72649;SDS011;61467;50.674;4.618;2023-05-07T07:20:54;12.43;;;4.50;;
72649;SDS011;61467;50.674;4.618;2023-05-07T07:23:26;10.02;;;3.78;;
72649;SDS011;61467;50.674;4.618;2023-05-07T07:25:57;9.73;;;4.50;;
72649;SDS011;61467;50.674;4.618;2023-05-07T07:28:32;11.10;;;4.32;;
72649;SDS011;61467;50.674;4.618;2023-05-07T07:31:05;10.30;;;4.15;;
72649;SDS011;61467;50.674;4.618;2023-05-07T07:33:35;10.88;;;4.00;;
72649;SDS011;61467;50.674;4.618;2023-05-07T07:36:06;8.63;;;4.00;;
72649;SDS011;61467;50.674;4.618;2023-05-07T07:38:36;11.63;;;3.53;;
72649;SDS011;61467;50.674;4.618;2023-05-07T07:41:03;10.52;;;4.00;;
72649;SDS011;61467;50.674;4.618;2023-05-07T07:43:35;11.40;;;4.40;;
72649;SDS011;61467;50.674;4.618;2023-05-07T07:46:04;11.32;;;3.58;;
72649;SDS011;61467;50.674;4.618;2023-05-07T07:48:35;9.95;;;4.35;;
72649;SDS011;61467;50.674;4.618;2023-05-07T07:51:05;11.00;;;4.10;;
72649;SDS011;61467;50.674;4.618;2023-05-07T07:53:34;10.45;;;4.03;;
72649;SDS011;61467;50.674;4.618;2023-05-07T07:56:05;8.15;;;3.67;;
72649;SDS011;61467;50.674;4.618;2023-05-07T07:58:38;8.20;;;3.20;;
72649;SDS011;61467;50.674;4.618;2023-05-07T08:01:07;8.68;;;3.10;;
72649;SDS011;61467;50.674;4.618;2023-05-07T08:03:42;9.23;;;3.30;;
72649;SDS011;61467;50.674;4.618;2023-05-07T08:06:09;7.82;;;3.10;;
72649;SDS011;61467;50.674;4.618;2023-05-07T08:08:40;9.68;;;3.45;;
72649;SDS011;61467;50.674;4.618;2023-05-07T08:11:08;7.85;;;3.20;;
72649;SDS011;61467;50.674;4.618;2023-05-07T08:13:41;9.80;;;3.40;;
72649;SDS011;61467;50.674;4.618;2023-05-07T08:16:13;10.30;;;3.53;;
72649;SDS011;61467;50.674;4.618;2023-05-07T08:18:40;12.40;;;3.53;;
72649;SDS011;61467;50.674;4.618;2023-05-07T08:21:07;6.95;;;2.88;;
72649;SDS011;61467;50.674;4.618;2023-05-07T08:23:34;7.97;;;3.17;;
72649;SDS011;61467;50.674;4.618;2023-05-07T08:26:01;9.73;;;3.17;;
72649;SDS011;61467;50.674;4.618;2023-05-07T08:28:33;8.70;;;3.10;;
72649;SDS011;61467;50.674;4.618;2023-05-07T08:31:07;8.55;;;3.40;;
72649;SDS011;61467;50.674;4.618;2023-05-07T08:33:37;11.73;;;3.33;;
72649;SDS011;61467;50.674;4.618;2023-05-07T08:36:06;6.60;;;2.85;;
72649;SDS011;61467;50.674;4.618;2023-05-07T08:38:36;8.57;;;3.30;;
72649;SDS011;61467;50.674;4.618;2023-05-07T08:41:05;8.27;;;2.93;;
72649;SDS011;61467;50.674;4.618;2023-05-07T08:43:33;8.88;;;3.30;;
72649;SDS011;61467;50.674;4.618;2023-05-07T08:46:07;7.15;;;2.80;;
72649;SDS011;61467;50.674;4.618;2023-05-07T08:48:40;8.52;;;3.15;;
72649;SDS011;61467;50.674;4.618;2023-05-07T08:51:20;8.10;;;2.92;;
72649;SDS011;61467;50.674;4.618;2023-05-07T08:53:50;7.90;;;3.00;;
72649;SDS011;61467;50.674;4.618;2023-05-07T08:56:21;7.95;;;2.65;;
72649;SDS011;61467;50.674;4.618;2023-05-07T08:58:53;8.77;;;3.17;;
72649;SDS011;61467;50.674;4.618;2023-05-07T09:01:27;8.63;;;3.50;;
72649;SDS011;61467;50.674;4.618;2023-05-07T09:04:03;9.93;;;3.25;;
72649;SDS011;61467;50.674;4.618;2023-05-07T09:06:33;7.47;;;3.07;;
72649;SDS011;61467;50.674;4.618;2023-05-07T09:09:05;10.23;;;3.40;;
72649;SDS011;61467;50.674;4.618;2023-05-07T09:11:35;7.55;;;3.22;;
72649;SDS011;61467;50.674;4.618;2023-05-07T09:14:05;8.15;;;3.08;;
72649;SDS011;61467;50.674;4.618;2023-05-07T09:16:35;8.07;;;3.05;;
72649;SDS011;61467;50.674;4.618;2023-05-07T09:19:05;7.03;;;3.20;;
72649;SDS011;61467;50.674;4.618;2023-05-07T09:21:34;8.65;;;3.05;;
72649;SDS011;61467;50.674;4.618;2023-05-07T09:24:03;8.07;;;3.25;;
72649;SDS011;61467;50.674;4.618;2023-05-07T09:26:34;7.35;;;2.88;;
72649;SDS011;61467;50.674;4.618;2023-05-07T09:29:05;8.60;;;2.88;;
72649;SDS011;61467;50.674;4.618;2023-05-07T09:31:37;7.17;;;2.60;;
72649;SDS011;61467;50.674;4.618;2023-05-07T09:34:12;7.38;;;2.95;;
72649;SDS011;61467;50.674;4.618;2023-05-07T09:36:46;7.32;;;2.65;;
72649;SDS011;61467;50.674;4.618;2023-05-07T09:39:19;8.57;;;3.28;;
72649;SDS011;61467;50.674;4.618;2023-05-07T09:41:48;6.72;;;2.67;;
72649;SDS011;61467;50.674;4.618;2023-05-07T09:44:20;7.37;;;3.20;;
72649;SDS011;61467;50.674;4.618;2023-05-07T09:46:52;7.28;;;3.25;;
72649;SDS011;61467;50.674;4.618;2023-05-07T09:49:23;8.57;;;3.38;;
72649;SDS011;61467;50.674;4.618;2023-05-07T09:51:53;6.75;;;2.92;;
72649;SDS011;61467;50.674;4.618;2023-05-07T09:54:22;8.30;;;3.53;;
72649;SDS011;61467;50.674;4.618;2023-05-07T09:56:52;8.83;;;3.50;;
72649;SDS011;61467;50.674;4.618;2023-05-07T09:59:19;8.32;;;2.97;;
72649;SDS011;61467;50.674;4.618;2023-05-07T10:01:51;7.45;;;2.75;;
72649;SDS011;61467;50.674;4.618;2023-05-07T10:04:25;7.25;;;2.70;;
72649;SDS011;61467;50.674;4.618;2023-05-07T10:06:56;7.90;;;3.15;;
72649;SDS011;61467;50.674;4.618;2023-05-07T10:09:25;6.30;;;2.67;;
72649;SDS011;61467;50.674;4.618;2023-05-07T10:11:54;7.28;;;2.90;;
72649;SDS011;61467;50.674;4.618;2023-05-07T10:14:24;8.15;;;2.88;;
72649;SDS011;61467;50.674;4.618;2023-05-07T10:17:01;8.82;;;2.85;;
72649;SDS011;61467;50.674;4.618;2023-05-07T10:19:33;6.53;;;2.60;;
72649;SDS011;61467;50.674;4.618;2023-05-07T10:22:04;7.33;;;2.77;;
72649;SDS011;61467;50.674;4.618;2023-05-07T10:24:38;6.97;;;3.10;;
72649;SDS011;61467;50.674;4.618;2023-05-07T10:27:14;7.43;;;2.75;;
72649;SDS011;61467;50.674;4.618;2023-05-07T10:29:49;7.38;;;2.78;;
72649;SDS011;61467;50.674;4.618;2023-05-07T10:32:39;7.35;;;2.90;;
72649;SDS011;61467;50.674;4.618;2023-05-07T10:35:10;6.93;;;2.70;;
72649;SDS011;61467;50.674;4.618;2023-05-07T10:37:45;8.60;;;2.95;;
72649;SDS011;61467;50.674;4.618;2023-05-07T10:40:15;8.20;;;2.63;;
72649;SDS011;61467;50.674;4.618;2023-05-07T10:42:56;8.75;;;2.58;;
72649;SDS011;61467;50.674;4.618;2023-05-07T10:45:27;6.68;;;2.80;;
72649;SDS011;61467;50.674;4.618;2023-05-07T10:48:08;6.50;;;2.50;;
72649;SDS011;61467;50.674;4.618;2023-05-07T10:50:42;7.47;;;2.63;;
72649;SDS011;61467;50.674;4.618;2023-05-07T10:53:22;6.65;;;2.70;;
72649;SDS011;61467;50.674;4.618;2023-05-07T11:02:07;6.97;;;3.27;;
72649;SDS011;61467;50.674;4.618;2023-05-07T11:04:42;7.15;;;2.80;;
72649;SDS011;61467;50.674;4.618;2023-05-07T11:10:05;6.55;;;2.20;;
72649;SDS011;61467;50.674;4.618;2023-05-07T11:12:51;6.78;;;2.13;;
72649;SDS011;61467;50.674;4.618;2023-05-07T11:15:37;6.63;;;2.70;;
72649;SDS011;61467;50.674;4.618;2023-05-07T11:18:16;7.30;;;2.10;;
72649;SDS011;61467;50.674;4.618;2023-05-07T11:20:56;7.95;;;3.15;;
72649;SDS011;61467;50.674;4.618;2023-05-07T11:26:47;16.10;;;8.25;;
72649;SDS011;61467;50.674;4.618;2023-05-07T11:29:21;11.00;;;5.63;;
72649;SDS011;61467;50.674;4.618;2023-05-07T11:31:51;10.00;;;4.32;;
72649;SDS011;61467;50.674;4.618;2023-05-07T11:34:22;7.57;;;3.00;;
72649;SDS011;61467;50.674;4.618;2023-05-07T11:36:57;9.15;;;2.63;;
72649;SDS011;61467;50.674;4.618;2023-05-07T11:39:33;6.28;;;2.33;;
72649;SDS011;61467;50.674;4.618;2023-05-07T11:42:02;8.27;;;2.37;;
72649;SDS011;61467;50.674;4.618;2023-05-07T11:44:41;6.03;;;2.20;;
72649;SDS011;61467;50.674;4.618;2023-05-07T11:47:19;6.22;;;2.00;;
72649;SDS011;61467;50.674;4.618;2023-05-07T11:49:51;6.22;;;2.08;;
72649;SDS011;61467;50.674;4.618;2023-05-07T11:52:29;7.93;;;2.17;;
72649;SDS011;61467;50.674;4.618;2023-05-07T11:55:02;5.97;;;1.90;;
72649;SDS011;61467;50.674;4.618;2023-05-07T11:57:32;6.03;;;2.40;;
72649;SDS011;61467;50.674;4.618;2023-05-07T12:00:05;8.50;;;2.60;;
72649;SDS011;61467;50.674;4.618;2023-05-07T12:02:35;8.05;;;2.40;;
72649;SDS011;61467;50.674;4.618;2023-05-07T12:05:05;6.75;;;2.28;;
72649;SDS011;61467;50.674;4.618;2023-05-07T12:07:35;6.87;;;2.40;;
72649;SDS011;61467;50.674;4.618;2023-05-07T12:10:05;6.38;;;2.10;;
72649;SDS011;61467;50.674;4.618;2023-05-07T12:12:46;5.90;;;1.98;;
72649;SDS011;61467;50.674;4.618;2023-05-07T12:15:23;5.05;;;1.80;;
72649;SDS011;61467;50.674;4.618;2023-05-07T12:17:51;5.57;;;1.45;;
72649;SDS011;61467;50.674;4.618;2023-05-07T12:20:23;5.60;;;1.77;;
72649;SDS011;61467;50.674;4.618;2023-05-07T12:23:01;5.60;;;1.48;;
72649;SDS011;61467;50.674;4.618;2023-05-07T12:25:35;4.63;;;1.50;;
72649;SDS011;61467;50.674;4.618;2023-05-07T12:28:05;5.18;;;1.55;;
72649;SDS011;61467;50.674;4.618;2023-05-07T12:30:37;8.07;;;1.50;;
72649;SDS011;61467;50.674;4.618;2023-05-07T12:33:10;4.07;;;1.27;;
72649;SDS011;61467;50.674;4.618;2023-05-07T12:35:48;5.13;;;1.25;;
72649;SDS011;61467;50.674;4.618;2023-05-07T12:38:20;4.43;;;1.10;;
72649;SDS011;61467;50.674;4.618;2023-05-07T12:40:54;4.82;;;1.20;;
72649;SDS011;61467;50.674;4.618;2023-05-07T12:43:24;4.25;;;1.25;;
72649;SDS011;61467;50.674;4.618;2023-05-07T12:45:54;5.50;;;1.40;;
72649;SDS011;61467;50.674;4.618;2023-05-07T12:48:32;6.32;;;1.30;;
72649;SDS011;61467;50.674;4.618;2023-05-07T12:51:04;4.57;;;1.30;;
72649;SDS011;61467;50.674;4.618;2023-05-07T12:53:39;4.57;;;1.15;;
72649;SDS011;61467;50.674;4.618;2023-05-07T12:56:10;6.15;;;1.60;;
72649;SDS011;61467;50.674;4.618;2023-05-07T12:58:49;4.17;;;1.63;;
72649;SDS011;61467;50.674;4.618;2023-05-07T13:01:21;6.63;;;1.90;;
72649;SDS011;61467;50.674;4.618;2023-05-07T13:04:02;7.13;;;1.75;;
72649;SDS011;61467;50.674;4.618;2023-05-07T13:06:34;5.70;;;1.73;;
72649;SDS011;61467;50.674;4.618;2023-05-07T13:09:04;6.25;;;1.75;;
72649;SDS011;61467;50.674;4.618;2023-05-07T13:11:33;7.53;;;2.13;;
72649;SDS011;61467;50.674;4.618;2023-05-07T13:14:05;7.78;;;2.25;;
72649;SDS011;61467;50.674;4.618;2023-05-07T13:16:36;5.47;;;2.20;;
72649;SDS011;61467;50.674;4.618;2023-05-07T13:19:05;6.78;;;2.17;;
72649;SDS011;61467;50.674;4.618;2023-05-07T13:21:37;7.13;;;2.85;;
72649;SDS011;61467;50.674;4.618;2023-05-07T13:24:11;6.63;;;2.73;;
72649;SDS011;61467;50.674;4.618;2023-05-07T13:26:46;7.18;;;2.90;;
72649;SDS011;61467;50.674;4.618;2023-05-07T13:29:16;7.78;;;2.85;;
72649;SDS011;61467;50.674;4.618;2023-05-07T13:31:44;7.63;;;3.10;;
72649;SDS011;61467;50.674;4.618;2023-05-07T13:34:18;8.32;;;2.92;;
72649;SDS011;61467;50.674;4.618;2023-05-07T13:36:46;7.07;;;2.63;;
72649;SDS011;61467;50.674;4.618;2023-05-07T13:39:22;5.78;;;2.33;;
72649;SDS011;61467;50.674;4.618;2023-05-07T13:41:49;7.82;;;3.30;;
72649;SDS011;61467;50.674;4.618;2023-05-07T13:44:17;6.22;;;2.63;;
72649;SDS011;61467;50.674;4.618;2023-05-07T13:46:48;7.63;;;3.40;;
72649;SDS011;61467;50.674;4.618;2023-05-07T13:49:19;6.53;;;2.70;;
72649;SDS011;61467;50.674;4.618;2023-05-07T13:51:49;6.88;;;2.92;;
72649;SDS011;61467;50.674;4.618;2023-05-07T13:54:17;7.45;;;2.75;;
72649;SDS011;61467;50.674;4.618;2023-05-07T13:56:59;6.95;;;2.88;;
72649;SDS011;61467;50.674;4.618;2023-05-07T13:59:29;7.47;;;3.55;;
72649;SDS011;61467;50.674;4.618;2023-05-07T14:01:56;6.43;;;2.90;;
72649;SDS011;61467;50.674;4.618;2023-05-07T14:04:25;7.40;;;3.25;;
72649;SDS011;61467;50.674;4.618;2023-05-07T14:07:02;6.53;;;3.10;;
72649;SDS011;61467;50.674;4.618;2023-05-07T14:09:37;8.73;;;3.83;;
72649;SDS011;61467;50.674;4.618;2023-05-07T14:12:13;7.50;;;3.85;;
72649;SDS011;61467;50.674;4.618;2023-05-07T14:14:49;9.90;;;4.97;;
72649;SDS011;61467;50.674;4.618;2023-05-07T14:17:17;9.02;;;4.13;;
72649;SDS011;61467;50.674;4.618;2023-05-07T14:19:49;8.55;;;3.92;;
72649;SDS011;61467;50.674;4.618;2023-05-07T14:22:21;11.75;;;4.45;;
72649;SDS011;61467;50.674;4.618;2023-05-07T14:24:53;11.10;;;5.00;;
72649;SDS011;61467;50.674;4.618;2023-05-07T14:27:29;9.63;;;5.10;;
72649;SDS011;61467;50.674;4.618;2023-05-07T14:30:03;9.10;;;4.80;;
72649;SDS011;61467;50.674;4.618;2023-05-07T14:32:35;10.48;;;5.15;;
72649;SDS011;61467;50.674;4.618;2023-05-07T14:35:05;10.35;;;5.53;;
72649;SDS011;61467;50.674;4.618;2023-05-07T14:37:33;10.45;;;4.95;;
72649;SDS011;61467;50.674;4.618;2023-05-07T14:40:06;10.37;;;4.97;;
72649;SDS011;61467;50.674;4.618;2023-05-07T14:42:43;10.13;;;5.07;;
72649;SDS011;61467;50.674;4.618;2023-05-07T14:45:16;10.18;;;4.55;;
72649;SDS011;61467;50.674;4.618;2023-05-07T14:47:48;9.32;;;5.15;;
72649;SDS011;61467;50.674;4.618;2023-05-07T14:50:18;8.93;;;4.28;;
72649;SDS011;61467;50.674;4.618;2023-05-07T14:52:51;9.90;;;4.43;;
72649;SDS011;61467;50.674;4.618;2023-05-07T14:55:23;9.27;;;4.60;;
72649;SDS011;61467;50.674;4.618;2023-05-07T14:57:55;8.98;;;4.47;;
72649;SDS011;61467;50.674;4.618;2023-05-07T15:00:26;8.13;;;4.00;;
72649;SDS011;61467;50.674;4.618;2023-05-07T15:03:01;8.80;;;3.80;;
72649;SDS011;61467;50.674;4.618;2023-05-07T15:05:33;7.87;;;4.00;;
72649;SDS011;61467;50.674;4.618;2023-05-07T15:08:05;9.45;;;4.15;;
72649;SDS011;61467;50.674;4.618;2023-05-07T15:10:35;7.35;;;3.83;;
72649;SDS011;61467;50.674;4.618;2023-05-07T15:13:08;7.80;;;4.10;;
72649;SDS011;61467;50.674;4.618;2023-05-07T15:15:47;9.48;;;4.55;;
72649;SDS011;61467;50.674;4.618;2023-05-07T15:18:19;8.50;;;3.87;;
72649;SDS011;61467;50.674;4.618;2023-05-07T15:20:54;7.85;;;3.97;;
72649;SDS011;61467;50.674;4.618;2023-05-07T15:23:25;8.05;;;4.15;;
72649;SDS011;61467;50.674;4.618;2023-05-07T15:25:57;8.30;;;3.70;;
72649;SDS011;61467;50.674;4.618;2023-05-07T15:28:31;8.18;;;4.18;;
72649;SDS011;61467;50.674;4.618;2023-05-07T15:31:01;7.63;;;3.57;;
72649;SDS011;61467;50.674;4.618;2023-05-07T15:33:34;7.35;;;3.50;;
72649;SDS011;61467;50.674;4.618;2023-05-07T15:36:04;7.85;;;3.15;;
72649;SDS011;61467;50.674;4.618;2023-05-07T15:38:32;7.13;;;2.63;;
72649;SDS011;61467;50.674;4.618;2023-05-07T15:41:01;6.97;;;2.90;;
72649;SDS011;61467;50.674;4.618;2023-05-07T15:43:34;7.73;;;2.80;;
72649;SDS011;61467;50.674;4.618;2023-05-07T15:46:13;7.30;;;3.05;;
72649;SDS011;61467;50.674;4.618;2023-05-07T15:48:50;7.85;;;3.55;;
72649;SDS011;61467;50.674;4.618;2023-05-07T15:51:20;7.70;;;3.25;;
72649;SDS011;61467;50.674;4.618;2023-05-07T15:53:50;7.85;;;3.97;;
72649;SDS011;61467;50.674;4.618;2023-05-07T15:56:18;8.67;;;4.63;;
72649;SDS011;61467;50.674;4.618;2023-05-07T15:58:51;8.20;;;3.97;;
72649;SDS011;61467;50.674;4.618;2023-05-07T16:01:32;8.30;;;4.10;;
72649;SDS011;61467;50.674;4.618;2023-05-07T16:04:24;8.25;;;4.07;;
72649;SDS011;61467;50.674;4.618;2023-05-07T16:06:52;7.55;;;3.90;;
72649;SDS011;61467;50.674;4.618;2023-05-07T16:09:21;7.90;;;3.73;;
72649;SDS011;61467;50.674;4.618;2023-05-07T16:11:51;8.55;;;3.47;;
72649;SDS011;61467;50.674;4.618;2023-05-07T16:17:51;9.20;;;3.60;;
72649;SDS011;61467;50.674;4.618;2023-05-07T16:20:31;6.97;;;3.65;;
72649;SDS011;61467;50.674;4.618;2023-05-07T16:26:06;7.85;;;3.80;;
72649;SDS011;61467;50.674;4.618;2023-05-07T16:28:41;8.43;;;4.53;;
72649;SDS011;61467;50.674;4.618;2023-05-07T16:34:26;7.93;;;4.05;;
72649;SDS011;61467;50.674;4.618;2023-05-07T16:37:21;7.70;;;4.10;;
72649;SDS011;61467;50.674;4.618;2023-05-07T16:40:19;7.47;;;3.70;;
72649;SDS011;61467;50.674;4.618;2023-05-07T16:42:49;7.30;;;3.63;;
72649;SDS011;61467;50.674;4.618;2023-05-07T16:45:35;8.10;;;3.88;;
72649;SDS011;61467;50.674;4.618;2023-05-07T16:48:12;7.53;;;3.47;;
72649;SDS011;61467;50.674;4.618;2023-05-07T16:50:53;8.27;;;3.83;;
72649;SDS011;61467;50.674;4.618;2023-05-07T16:53:36;7.82;;;3.50;;
72649;SDS011;61467;50.674;4.618;2023-05-07T16:59:02;5.47;;;2.10;;
72649;SDS011;61467;50.674;4.618;2023-05-07T17:01:34;6.82;;;2.45;;
72649;SDS011;61467;50.674;4.618;2023-05-07T17:04:23;5.70;;;2.63;;
72649;SDS011;61467;50.674;4.618;2023-05-07T17:07:09;6.60;;;2.67;;
72649;SDS011;61467;50.674;4.618;2023-05-07T17:09:51;7.95;;;3.33;;
72649;SDS011;61467;50.674;4.618;2023-05-07T17:12:34;7.30;;;3.00;;
72649;SDS011;61467;50.674;4.618;2023-05-07T17:15:19;6.95;;;2.92;;
72649;SDS011;61467;50.674;4.618;2023-05-07T17:18:04;5.97;;;2.63;;
72649;SDS011;61467;50.674;4.618;2023-05-07T17:23:45;7.32;;;2.67;;
72649;SDS011;61467;50.674;4.618;2023-05-07T17:26:28;6.20;;;2.83;;
72649;SDS011;61467;50.674;4.618;2023-05-07T17:32:36;6.33;;;2.70;;
72649;SDS011;61467;50.674;4.618;2023-05-07T17:35:06;7.53;;;3.17;;
72649;SDS011;61467;50.674;4.618;2023-05-07T17:37:40;5.93;;;2.72;;
72649;SDS011;61467;50.674;4.618;2023-05-07T17:40:18;7.32;;;2.90;;
72649;SDS011;61467;50.674;4.618;2023-05-07T17:42:56;8.57;;;3.03;;
72649;SDS011;61467;50.674;4.618;2023-05-07T17:45:36;9.23;;;2.87;;
72649;SDS011;61467;50.674;4.618;2023-05-07T17:48:21;5.70;;;2.33;;
72649;SDS011;61467;50.674;4.618;2023-05-07T17:53:59;5.70;;;2.55;;
72649;SDS011;61467;50.674;4.618;2023-05-07T18:00:21;6.07;;;3.03;;
72649;SDS011;61467;50.674;4.618;2023-05-07T18:03:09;6.70;;;2.92;;
72649;SDS011;61467;50.674;4.618;2023-05-07T18:05:48;6.93;;;2.70;;
72649;SDS011;61467;50.674;4.618;2023-05-07T18:08:21;5.28;;;2.35;;